Time;durP1;ratioP1;P1;durP2;ratioP2;P2;SDS_P1;SDS_P2;PMS_P1;PMS_P2;Temp;Humidity;BMP_temperature;BMP_pressure;BME280_temperature;BME280_humidity;BME280_pressure;Samples;Min_cycle;Max_cycle;Signal;HPM_P1;HPM_P2
2021/09/19 00:00:38;;;;;;;;;;;;;;;22.03;51.49;102566.72;2084104;28;957;-64
2021/09/19 00:01:39;;;;;;;;;;;;;;;22.04;50.39;102558.59;2084057;28;767;-64
2021/09/19 00:02:40;;;;;;;;;;;;;;;21.99;51.11;102562.28;2084167;28;901;-64
2021/09/19 00:03:41;;;;;;;;;;;;;;;22.01;50.86;102561.31;2084102;28;839;-65
2021/09/19 00:04:41;;;;;;;;;;;;;;;21.97;52.35;102556.88;2083974;28;795;-64
2021/09/19 00:05:41;;;;;;;;;;;;;;;21.92;52.02;102561.44;2084105;28;1008;-65
2021/09/19 00:06:41;;;;;;;;;;;;;;;21.94;51.11;102558.72;2084101;28;756;-64
2021/09/19 00:07:41;;;;;;;;;;;;;;;21.91;51.35;102556.94;2083723;28;851;-64
2021/09/19 00:08:41;;;;;;;;;;;;;;;21.96;50.65;102556.91;2084896;28;1013;-64
2021/09/19 00:09:41;;;;;;;;;;;;;;;21.92;53.08;102558.72;2084081;28;996;-64
2021/09/19 00:10:42;;;;;;;;;;;;;;;21.90;51.89;102558.78;2084081;28;1198;-65
2021/09/19 00:11:43;;;;;;;;;;;;;;;21.88;51.18;102560.59;2084096;28;893;-64
2021/09/19 00:12:44;;;;;;;;;;;;;;;21.89;52.00;102558.78;2084009;28;878;-65
2021/09/19 00:13:44;;;;;;;;;;;;;;;21.86;51.76;102554.31;2084099;28;842;-64
2021/09/19 00:14:44;;;;;;;;;;;;;;;21.85;52.37;102551.63;2084017;28;894;-64
2021/09/19 00:15:45;;;;;;;;;;;;;;;21.84;51.49;102557.94;2083783;28;1059;-64
2021/09/19 00:16:45;;;;;;;;;;;;;;;21.83;52.97;102545.34;2084029;28;1036;-65
2021/09/19 00:17:46;;;;;;;;;;;;;;;21.84;52.80;102560.63;2084026;28;838;-64
2021/09/19 00:18:47;;;;;;;;;;;;;;;21.91;50.63;102570.44;2083834;28;1953;-64
2021/09/19 00:19:47;;;;;;;;;;;;;;;21.86;50.79;102567.81;2084033;28;937;-66
2021/09/19 00:20:47;;;;;;;;;;;;;;;21.99;51.10;102552.34;2083942;28;1028;-64
2021/09/19 00:21:47;;;;;;;;;;;;;;;21.91;52.29;102565.03;2083645;28;834;-65
2021/09/19 00:22:47;;;;;;;;;;;;;;;21.88;51.67;102555.19;2083967;28;898;-64
2021/09/19 00:23:47;;;;;;;;;;;;;;;21.84;51.76;102552.53;2083849;28;1254;-65
2021/09/19 00:24:48;;;;;;;;;;;;;;;21.86;50.71;102556.09;2083698;28;1376;-64
2021/09/19 00:25:49;;;;;;;;;;;;;;;21.92;51.66;102565.03;2083989;28;823;-64
2021/09/19 00:26:49;;;;;;;;;;;;;;;21.85;51.20;102560.63;2083916;28;811;-64
2021/09/19 00:27:49;;;;;;;;;;;;;;;21.88;51.03;102560.59;2083748;28;779;-64
2021/09/19 00:28:49;;;;;;;;;;;;;;;21.88;51.51;102562.38;2083833;28;1270;-65
2021/09/19 00:29:50;;;;;;;;;;;;;;;21.85;51.48;102559.72;2075217;28;742;-64
2021/09/19 00:30:50;;;;;;;;;;;;;;;21.82;52.12;102557.06;2075738;28;791;-65
2021/09/19 00:31:50;;;;;;;;;;;;;;;21.77;51.47;102558.03;2084057;28;974;-64
2021/09/19 00:32:50;;;;;;;;;;;;;;;21.80;52.12;102565.19;2083519;28;806;-64
2021/09/19 00:33:50;;;;;;;;;;;;;;;21.83;52.52;102561.53;2083777;28;1588;-64
2021/09/19 00:34:51;;;;;;;;;;;;;;;21.79;52.65;102558.00;2083858;28;1465;-64
2021/09/19 00:35:51;;;;;;;;;;;;;;;21.77;51.35;102557.13;2083946;28;984;-65
2021/09/19 00:36:51;;;;;;;;;;;;;;;21.76;53.01;102556.25;2083910;28;980;-64
2021/09/19 00:37:52;;;;;;;;;;;;;;;21.79;50.79;102558.00;2083729;28;1175;-64
2021/09/19 00:38:52;;;;;;;;;;;;;;;21.82;51.09;102566.06;2083581;28;1890;-64
2021/09/19 00:39:52;;;;;;;;;;;;;;;21.73;53.03;102560.75;2083873;28;822;-64
2021/09/19 00:40:52;;;;;;;;;;;;;;;21.73;51.66;102569.75;2083854;28;830;-64
2021/09/19 00:41:53;;;;;;;;;;;;;;;21.77;53.64;102565.22;2083841;28;1256;-65
2021/09/19 00:42:53;;;;;;;;;;;;;;;21.80;51.96;102562.47;2083823;28;984;-64
2021/09/19 00:43:53;;;;;;;;;;;;;;;21.83;51.11;102559.75;2083456;28;981;-64
2021/09/19 00:45:00;;;;;;;;;;;;;;;21.80;51.36;102556.16;2083777;28;1028;-64
2021/09/19 00:46:00;;;;;;;;;;;;;;;21.75;52.43;102558.94;2083757;28;992;-64
2021/09/19 00:47:00;;;;;;;;;;;;;;;21.81;50.28;102556.16;2083388;28;759;-64
2021/09/19 00:48:01;;;;;;;;;;;;;;;21.81;51.73;102558.88;2083787;28;855;-64
2021/09/19 00:49:01;;;;;;;;;;;;;;;21.80;53.31;102562.47;2083787;28;858;-66
2021/09/19 00:50:01;;;;;;;;;;;;;;;21.71;53.77;102555.41;2083931;28;993;-64
2021/09/19 00:51:03;;;;;;;;;;;;;;;21.74;51.79;102563.47;2084396;28;992;-64
2021/09/19 00:52:03;;;;;;;;;;;;;;;21.74;52.29;102554.44;2083545;28;799;-64
2021/09/19 00:53:05;;;;;;;;;;;;;;;21.67;51.83;102567.13;2083784;28;1028;-64
2021/09/19 00:54:05;;;;;;;;;;;;;;;21.79;51.23;102562.47;2083686;28;972;-64
2021/09/19 00:55:07;;;;;;;;;;;;;;;21.81;51.03;102560.66;2083499;28;961;-63
2021/09/19 00:56:09;;;;;;;;;;;;;;;21.72;51.80;102562.56;2082914;28;865;-63
2021/09/19 00:57:09;;;;;;;;;;;;;;;21.73;51.08;102561.66;2083594;28;775;-63
2021/09/19 00:58:11;;;;;;;;;;;;;;;21.69;52.26;102565.31;2083024;28;1383;-64
2021/09/19 00:59:11;;;;;;;;;;;;;;;21.71;52.00;102558.09;2083633;28;1910;-64
2021/09/19 01:00:14;;;;;;;;;;;;;;;21.68;52.80;102565.31;2083739;28;1039;-64
2021/09/19 01:01:15;;;;;;;;;;;;;;;21.65;51.70;102563.56;2074626;28;1246;-63
2021/09/19 01:02:15;;;;;;;;;;;;;;;21.72;51.44;102553.56;2075011;28;918;-64
2021/09/19 01:03:16;;;;;;;;;;;;;;;21.72;50.98;102556.28;2083671;28;989;-64
2021/09/19 01:04:16;;;;;;;;;;;;;;;21.77;51.79;102560.72;2083644;28;806;-64
2021/09/19 01:05:17;;;;;;;;;;;;;;;21.78;50.74;102553.50;2083671;28;830;-63
2021/09/19 01:06:17;;;;;;;;;;;;;;;21.76;51.06;102560.72;2083583;28;779;-64
2021/09/19 01:07:18;;;;;;;;;;;;;;;21.80;50.29;102558.88;2083346;28;830;-64
2021/09/19 01:08:19;;;;;;;;;;;;;;;21.75;50.88;102558.94;2083638;28;791;-64
2021/09/19 01:09:19;;;;;;;;;;;;;;;21.72;53.92;102557.19;2083608;28;844;-64
2021/09/19 01:10:22;;;;;;;;;;;;;;;21.70;52.04;102561.69;2083609;28;980;-63
2021/09/19 01:11:23;;;;;;;;;;;;;;;21.72;51.65;102558.97;2083609;28;1012;-63
2021/09/19 01:12:23;;;;;;;;;;;;;;;21.71;51.01;102550.00;2084276;28;795;-64
2021/09/19 01:13:25;;;;;;;;;;;;;;;21.71;51.60;102560.78;2083617;28;973;-63
2021/09/19 01:14:27;;;;;;;;;;;;;;;21.72;51.71;102559.88;2083627;28;775;-63
2021/09/19 01:15:27;;;;;;;;;;;;;;;21.71;51.79;102566.19;2083305;28;1552;-64
2021/09/19 01:16:27;;;;;;;;;;;;;;;21.69;51.66;102557.22;2083552;28;976;-64
2021/09/19 01:17:27;;;;;;;;;;;;;;;21.71;51.49;102555.41;2083568;28;1004;-63
2021/09/19 01:18:28;;;;;;;;;;;;;;;21.75;50.99;102557.16;2083157;28;1179;-64
2021/09/19 01:19:30;;;;;;;;;;;;;;;21.75;51.24;102558.94;2083462;28;1906;-64
2021/09/19 01:20:31;;;;;;;;;;;;;;;21.72;50.77;102554.50;2083573;28;756;-63
2021/09/19 01:21:31;;;;;;;;;;;;;;;21.70;51.27;102556.31;2083181;28;1246;-64
2021/09/19 01:22:33;;;;;;;;;;;;;;;21.70;50.99;102556.31;2083500;28;953;-64
2021/09/19 01:23:33;;;;;;;;;;;;;;;21.70;52.26;102561.69;2083405;28;1440;-64
2021/09/19 01:24:33;;;;;;;;;;;;;;;21.66;50.89;102556.34;2083491;28;966;-64
2021/09/19 01:25:34;;;;;;;;;;;;;;;21.61;51.79;102559.94;2083477;28;1237;-64
2021/09/19 01:26:34;;;;;;;;;;;;;;;21.64;51.07;102561.75;2083422;28;835;-63
2021/09/19 01:27:34;;;;;;;;;;;;;;;21.68;50.55;102552.72;2083455;28;812;-64
2021/09/19 01:28:34;;;;;;;;;;;;;;;21.67;51.00;102553.63;2083267;28;989;-64
2021/09/19 01:29:35;;;;;;;;;;;;;;;21.69;50.51;102553.59;2083122;28;1052;-64
2021/09/19 01:30:36;;;;;;;;;;;;;;;21.70;51.17;102560.78;2083463;28;966;-63
2021/09/19 01:31:36;;;;;;;;;;;;;;;21.70;53.06;102555.41;2083436;28;847;-64
2021/09/19 01:32:38;;;;;;;;;;;;;;;21.63;53.07;102551.88;2083408;28;906;-64
2021/09/19 01:33:38;;;;;;;;;;;;;;;21.61;51.36;102557.25;2083145;28;1563;-63
2021/09/19 01:34:39;;;;;;;;;;;;;;;21.65;51.55;102563.56;2085208;28;1109;-64
2021/09/19 01:35:40;;;;;;;;;;;;;;;21.66;50.58;102559.03;2083441;28;1014;-63
2021/09/19 01:36:40;;;;;;;;;;;;;;;21.68;50.88;102557.22;2083265;28;776;-63
2021/09/19 01:37:41;;;;;;;;;;;;;;;21.66;51.85;102557.25;2083459;28;800;-64
2021/09/19 01:38:41;;;;;;;;;;;;;;;21.64;52.73;102561.75;2083374;28;875;-63
2021/09/19 01:39:41;;;;;;;;;;;;;;;21.67;51.00;102564.44;2083203;28;1906;-63
2021/09/19 01:40:42;;;;;;;;;;;;;;;21.68;50.53;102559.91;2083403;28;1033;-63
2021/09/19 01:41:42;;;;;;;;;;;;;;;21.65;50.85;102558.16;2083395;28;982;-64
2021/09/19 01:42:43;;;;;;;;;;;;;;;21.62;50.98;102560.88;2082954;28;974;-63
2021/09/19 01:43:43;;;;;;;;;;;;;;;21.59;52.14;102558.19;2083410;28;831;-63
2021/09/19 01:44:43;;;;;;;;;;;;;;;21.57;52.64;102565.41;2083357;28;796;-63
2021/09/19 01:45:43;;;;;;;;;;;;;;;21.57;53.82;102562.69;2083351;28;809;-64
2021/09/19 01:46:43;;;;;;;;;;;;;;;21.55;52.73;102562.69;2083393;28;792;-63
2021/09/19 01:47:44;;;;;;;;;;;;;;;21.58;52.02;102557.28;2083149;28;782;-63
2021/09/19 01:48:44;;;;;;;;;;;;;;;21.59;51.92;102553.66;2083342;28;958;-64
2021/09/19 01:49:48;;;;;;;;;;;;;;;21.62;52.14;102559.06;2083309;28;827;-64
2021/09/19 01:50:48;;;;;;;;;;;;;;;21.54;51.88;102555.53;2083283;28;847;-64
2021/09/19 01:51:48;;;;;;;;;;;;;;;21.60;53.09;102549.19;2083349;28;987;-63
2021/09/19 01:52:48;;;;;;;;;;;;;;;21.59;52.43;102552.78;2083164;28;816;-64
2021/09/19 01:53:51;;;;;;;;;;;;;;;21.63;51.93;102554.59;2083052;28;1680;-64
2021/09/19 01:54:51;;;;;;;;;;;;;;;21.63;51.64;102554.59;2083295;28;820;-64
2021/09/19 01:55:51;;;;;;;;;;;;;;;21.67;50.94;102563.53;2083075;28;1010;-63
2021/09/19 01:56:51;;;;;;;;;;;;;;;21.62;51.74;102556.38;2083309;28;820;-64
2021/09/19 01:57:51;;;;;;;;;;;;;;;21.65;52.40;102557.25;2083256;28;852;-63
2021/09/19 01:58:52;;;;;;;;;;;;;;;21.57;52.29;102549.22;2084036;28;1886;-63
2021/09/19 01:59:54;;;;;;;;;;;;;;;21.53;52.65;102551.03;2083549;28;1057;-64
2021/09/19 02:00:55;;;;;;;;;;;;;;;21.53;53.27;102552.84;2083318;28;1032;-63
2021/09/19 02:01:55;;;;;;;;;;;;;;;21.58;50.99;102556.41;2083194;28;922;-63
2021/09/19 02:02:55;;;;;;;;;;;;;;;21.61;53.29;102554.53;2083300;28;906;-64
2021/09/19 02:03:56;;;;;;;;;;;;;;;21.58;51.59;102553.69;2083090;28;772;-63
2021/09/19 02:04:56;;;;;;;;;;;;;;;21.60;51.69;102552.75;2083246;28;867;-63
2021/09/19 02:05:56;;;;;;;;;;;;;;;21.62;51.93;102560.88;2083237;28;760;-63
2021/09/19 02:06:57;;;;;;;;;;;;;;;21.56;52.45;102558.22;2081838;28;1459;-64
2021/09/19 02:07:57;;;;;;;;;;;;;;;21.62;51.05;102547.41;2082566;28;777;-63
2021/09/19 02:08:57;;;;;;;;;;;;;;;21.64;51.53;102547.38;2083320;28;796;-63
2021/09/19 02:09:57;;;;;;;;;;;;;;;21.60;51.87;102554.56;2083161;28;820;-63
2021/09/19 02:10:57;;;;;;;;;;;;;;;21.66;51.40;102545.56;2074454;28;954;-64
2021/09/19 02:11:57;;;;;;;;;;;;;;;21.62;52.71;102547.41;2074453;28;752;-64
2021/09/19 02:12:58;;;;;;;;;;;;;;;21.58;52.52;102546.50;2082784;28;805;-63
2021/09/19 02:13:58;;;;;;;;;;;;;;;21.61;51.68;102543.75;2083217;28;868;-63
2021/09/19 02:14:58;;;;;;;;;;;;;;;21.53;52.37;102550.16;2083221;28;768;-64
2021/09/19 02:15:59;;;;;;;;;;;;;;;21.59;51.44;102544.69;2083168;28;930;-64
2021/09/19 02:17:00;;;;;;;;;;;;;;;21.60;52.06;102546.50;2083134;28;981;-63
2021/09/19 02:18:00;;;;;;;;;;;;;;;21.59;52.56;102547.41;2082963;28;985;-64
2021/09/19 02:19:00;;;;;;;;;;;;;;;21.62;53.33;102539.31;2082946;28;1902;-63
2021/09/19 02:20:01;;;;;;;;;;;;;;;21.61;51.63;102543.75;2084824;28;994;-64
2021/09/19 02:21:02;;;;;;;;;;;;;;;21.64;51.71;102545.59;2083068;28;815;-63
2021/09/19 02:22:02;;;;;;;;;;;;;;;21.69;50.19;102543.72;2083206;28;1049;-63
2021/09/19 02:23:02;;;;;;;;;;;;;;;21.68;50.89;102541.94;2081978;28;1432;-63
2021/09/19 02:24:03;;;;;;;;;;;;;;;21.63;51.05;102543.78;2074613;28;1021;-63
2021/09/19 02:25:03;;;;;;;;;;;;;;;21.56;52.05;102550.13;2075002;28;772;-63
2021/09/19 02:26:04;;;;;;;;;;;;;;;21.62;51.45;102553.66;2075035;28;824;-63
2021/09/19 02:27:04;;;;;;;;;;;;;;;21.67;51.97;102545.56;2074884;28;1032;-63
2021/09/19 02:28:04;;;;;;;;;;;;;;;21.65;51.33;102541.97;2075028;28;810;-63
2021/09/19 02:29:04;;;;;;;;;;;;;;;21.58;52.77;102546.50;2074868;28;1012;-64
2021/09/19 02:30:06;;;;;;;;;;;;;;;21.54;54.14;102550.13;2074898;28;973;-63
2021/09/19 02:31:06;;;;;;;;;;;;;;;21.58;52.13;102543.78;2074918;28;1136;-64
2021/09/19 02:32:07;;;;;;;;;;;;;;;21.55;51.83;102549.22;2075041;28;1041;-63
2021/09/19 02:33:07;;;;;;;;;;;;;;;21.51;52.39;102544.75;2075056;28;920;-64
2021/09/19 02:34:07;;;;;;;;;;;;;;;21.55;51.11;102551.03;2074799;28;1047;-63
2021/09/19 02:35:09;;;;;;;;;;;;;;;21.54;52.58;102549.25;2074827;28;820;-63
2021/09/19 02:36:09;;;;;;;;;;;;;;;21.56;52.39;102550.13;2074896;28;1320;-64
2021/09/19 02:37:09;;;;;;;;;;;;;;;21.56;51.82;102544.72;2074790;28;862;-64
2021/09/19 02:38:09;;;;;;;;;;;;;;;21.58;52.18;102551.00;2074702;28;1452;-64
2021/09/19 02:39:09;;;;;;;;;;;;;;;21.65;51.02;102541.97;2074851;28;1985;-63
2021/09/19 02:40:10;;;;;;;;;;;;;;;21.65;50.98;102544.69;2074869;28;981;-63
2021/09/19 02:41:10;;;;;;;;;;;;;;;21.66;52.16;102545.56;2074865;28;1131;-63
2021/09/19 02:42:10;;;;;;;;;;;;;;;21.64;50.99;102545.59;2074986;28;990;-64
2021/09/19 02:43:10;;;;;;;;;;;;;;;21.56;52.56;102548.31;2074716;28;954;-63
2021/09/19 02:44:11;;;;;;;;;;;;;;;21.60;51.94;102549.19;2075802;28;847;-64
2021/09/19 02:45:11;;;;;;;;;;;;;;;21.56;52.57;102545.63;2075509;28;768;-64
2021/09/19 02:46:12;;;;;;;;;;;;;;;21.51;52.54;102549.28;2074897;28;809;-63
2021/09/19 02:47:12;;;;;;;;;;;;;;;21.58;52.05;102551.00;2074939;28;852;-63
2021/09/19 02:48:12;;;;;;;;;;;;;;;21.52;51.83;102543.84;2074858;28;1397;-63
2021/09/19 02:49:12;;;;;;;;;;;;;;;21.48;52.27;102540.31;2074961;28;764;-63
2021/09/19 02:50:14;;;;;;;;;;;;;;;21.48;51.46;102551.09;2074992;28;953;-63
2021/09/19 02:51:14;;;;;;;;;;;;;;;21.56;52.02;102544.72;2074809;28;1971;-63
2021/09/19 02:52:14;;;;;;;;;;;;;;;21.58;53.74;102545.63;2074982;28;757;-63
2021/09/19 02:53:14;;;;;;;;;;;;;;;21.52;53.53;102540.28;2074937;28;855;-63
2021/09/19 02:54:14;;;;;;;;;;;;;;;21.55;53.38;102546.53;2074791;28;986;-64
2021/09/19 02:55:18;;;;;;;;;;;;;;;21.53;53.38;102539.38;2074945;28;1040;-63
2021/09/19 02:56:18;;;;;;;;;;;;;;;21.52;53.62;102541.16;2074769;28;815;-63
2021/09/19 02:57:18;;;;;;;;;;;;;;;21.49;53.87;102538.50;2074944;28;1163;-63
2021/09/19 02:58:19;;;;;;;;;;;;;;;21.54;54.30;102546.56;2074878;28;1005;-63
2021/09/19 02:59:19;;;;;;;;;;;;;;;21.42;55.10;102539.50;2074476;28;1963;-64
2021/09/19 03:00:20;;;;;;;;;;;;;;;21.47;53.79;102540.34;2074886;28;824;-63
2021/09/19 03:01:20;;;;;;;;;;;;;;;21.48;53.63;102544.81;2074888;28;974;-63
2021/09/19 03:02:20;;;;;;;;;;;;;;;21.45;54.86;102540.34;2074906;28;764;-63
2021/09/19 03:03:20;;;;;;;;;;;;;;;21.46;53.26;102546.66;2074889;28;1036;-63
2021/09/19 03:04:20;;;;;;;;;;;;;;;21.44;53.79;102548.47;2074196;28;985;-63
2021/09/19 03:05:21;;;;;;;;;;;;;;;21.46;53.67;102543.94;2074268;28;1184;-63
2021/09/19 03:06:22;;;;;;;;;;;;;;;21.40;52.33;102547.59;2074879;28;851;-63
2021/09/19 03:07:22;;;;;;;;;;;;;;;21.36;53.14;102542.25;2075367;28;858;-63
2021/09/19 03:08:22;;;;;;;;;;;;;;;21.32;52.44;102547.66;2074704;28;982;-63
2021/09/19 03:09:22;;;;;;;;;;;;;;;21.37;52.51;102544.91;2074871;28;1003;-63
2021/09/19 03:10:23;;;;;;;;;;;;;;;21.30;51.96;102549.50;2074871;28;811;-63
2021/09/19 03:11:23;;;;;;;;;;;;;;;21.30;49.88;102546.78;2074848;28;795;-63
2021/09/19 03:12:23;;;;;;;;;;;;;;;21.28;50.37;102542.31;2074643;28;827;-64
2021/09/19 03:13:23;;;;;;;;;;;;;;;21.30;50.17;102545.88;2074849;28;826;-63
2021/09/19 03:14:23;;;;;;;;;;;;;;;21.37;50.73;102553.00;2074841;28;828;-63
2021/09/19 03:15:24;;;;;;;;;;;;;;;21.38;52.38;102544.00;2074775;28;982;-63
2021/09/19 03:16:24;;;;;;;;;;;;;;;21.39;52.07;102551.19;2075006;28;833;-64
2021/09/19 03:17:24;;;;;;;;;;;;;;;21.39;50.17;102547.63;2074776;28;851;-63
2021/09/19 03:18:24;;;;;;;;;;;;;;;21.39;52.39;102550.31;2074684;28;938;-63
2021/09/19 03:19:24;;;;;;;;;;;;;;;21.40;53.21;102549.41;2075258;28;1899;-65
2021/09/19 03:20:24;;;;;;;;;;;;;;;21.44;52.15;102545.75;2075962;28;982;-63
2021/09/19 03:21:24;;;;;;;;;;;;;;;21.47;50.97;102543.91;2076091;28;792;-64
2021/09/19 03:22:25;;;;;;;;;;;;;;;21.44;51.88;102545.75;2076222;28;926;-64
2021/09/19 03:23:25;;;;;;;;;;;;;;;21.46;50.71;102546.66;2080210;28;1424;-63
2021/09/19 03:24:25;;;;;;;;;;;;;;;21.45;53.27;102545.72;2084476;28;819;-63
2021/09/19 03:25:25;;;;;;;;;;;;;;;21.40;52.13;102542.19;2084391;28;922;-64
2021/09/19 03:26:25;;;;;;;;;;;;;;;21.40;52.76;102541.31;2084238;28;993;-63
2021/09/19 03:27:25;;;;;;;;;;;;;;;21.44;51.70;102545.75;2084454;28;799;-63
2021/09/19 03:28:25;;;;;;;;;;;;;;;21.39;52.73;102539.53;2084427;28;957;-63
2021/09/19 03:29:26;;;;;;;;;;;;;;;21.38;52.05;102551.22;2083940;28;989;-63
2021/09/19 03:30:26;;;;;;;;;;;;;;;21.43;51.76;102541.28;2084353;28;913;-63
2021/09/19 03:31:26;;;;;;;;;;;;;;;21.43;52.68;102542.16;2084392;28;953;-63
2021/09/19 03:32:26;;;;;;;;;;;;;;;21.37;52.86;102544.91;2085256;28;850;-64
2021/09/19 03:33:26;;;;;;;;;;;;;;;21.37;52.46;102541.34;2084109;28;1202;-63
2021/09/19 03:34:27;;;;;;;;;;;;;;;21.40;51.19;102544.88;2084067;28;764;-63
2021/09/19 03:35:27;;;;;;;;;;;;;;;21.44;51.89;102543.06;2084354;28;835;-63
2021/09/19 03:36:27;;;;;;;;;;;;;;;21.47;52.23;102543.91;2084373;28;1334;-63
2021/09/19 03:37:27;;;;;;;;;;;;;;;21.53;51.81;102548.34;2084310;28;767;-64
2021/09/19 03:38:28;;;;;;;;;;;;;;;21.44;51.85;102543.94;2084301;28;977;-63
2021/09/19 03:39:28;;;;;;;;;;;;;;;21.40;52.43;102547.59;2084322;28;1961;-63
2021/09/19 03:40:28;;;;;;;;;;;;;;;21.39;51.23;102543.09;2084234;28;969;-63
2021/09/19 03:41:28;;;;;;;;;;;;;;;21.34;51.55;102550.34;2084343;28;811;-63
2021/09/19 03:42:28;;;;;;;;;;;;;;;21.43;51.71;102552.06;2084248;28;1016;-63
2021/09/19 03:43:29;;;;;;;;;;;;;;;21.46;50.28;102552.91;2084018;28;958;-63
2021/09/19 03:44:29;;;;;;;;;;;;;;;21.48;51.15;102548.41;2084366;28;910;-63
2021/09/19 03:45:29;;;;;;;;;;;;;;;21.40;52.26;102552.97;2084224;28;1073;-63
2021/09/19 03:46:29;;;;;;;;;;;;;;;21.42;51.77;102551.16;2084319;28;838;-63
2021/09/19 03:47:29;;;;;;;;;;;;;;;21.42;50.84;102545.75;2084276;28;1056;-63
2021/09/19 03:48:30;;;;;;;;;;;;;;;21.39;51.02;102551.19;2084290;28;835;-63
2021/09/19 03:49:31;;;;;;;;;;;;;;;21.35;51.09;102554.81;2084296;28;914;-63
2021/09/19 03:50:31;;;;;;;;;;;;;;;21.40;50.67;102555.66;2084046;28;799;-63
2021/09/19 03:51:31;;;;;;;;;;;;;;;21.47;51.30;102548.44;2083803;28;850;-63
2021/09/19 03:52:31;;;;;;;;;;;;;;;21.41;52.40;102546.66;2084009;28;945;-63
2021/09/19 03:53:31;;;;;;;;;;;;;;;21.36;52.07;102548.53;2083820;28;977;-63
2021/09/19 03:54:32;;;;;;;;;;;;;;;21.36;53.86;102553.03;2083949;28;807;-63
2021/09/19 03:55:32;;;;;;;;;;;;;;;21.38;53.67;102556.59;2084012;28;871;-63
2021/09/19 03:56:32;;;;;;;;;;;;;;;21.42;53.68;102556.56;2084063;28;763;-64
2021/09/19 03:57:32;;;;;;;;;;;;;;;21.40;51.78;102552.97;2084084;28;969;-63
2021/09/19 03:58:33;;;;;;;;;;;;;;;21.47;51.79;102559.22;2084177;28;1062;-63
2021/09/19 03:59:33;;;;;;;;;;;;;;;21.43;51.96;102558.34;2084097;28;1961;-63
2021/09/19 04:00:33;;;;;;;;;;;;;;;21.58;51.04;102553.69;2084187;28;769;-63
2021/09/19 04:01:33;;;;;;;;;;;;;;;21.60;51.49;102557.28;2084029;28;859;-63
2021/09/19 04:02:34;;;;;;;;;;;;;;;21.58;50.73;102562.66;2075350;28;962;-63
2021/09/19 04:03:34;;;;;;;;;;;;;;;22.17;49.89;102558.44;2075383;28;760;-64
2021/09/19 04:04:34;;;;;;;;;;;;;;;22.58;49.96;102554.28;2083845;28;839;-64
2021/09/19 04:05:36;;;;;;;;;;;;;;;22.77;48.77;102559.41;2084107;28;945;-64
2021/09/19 04:06:36;;;;;;;;;;;;;;;22.88;49.16;102554.75;2084109;28;856;-64
2021/09/19 04:07:37;;;;;;;;;;;;;;;22.95;49.68;102551.03;2083830;28;1056;-64
2021/09/19 04:08:37;;;;;;;;;;;;;;;23.02;47.96;102557.19;2084027;28;886;-64
2021/09/19 04:09:37;;;;;;;;;;;;;;;23.09;48.07;102557.97;2084072;28;850;-63
2021/09/19 04:10:37;;;;;;;;;;;;;;;23.14;48.26;102550.69;2084060;28;747;-64
2021/09/19 04:11:37;;;;;;;;;;;;;;;23.12;50.83;102557.94;2084099;28;834;-64
2021/09/19 04:12:38;;;;;;;;;;;;;;;23.08;49.61;102556.19;2084098;28;847;-64
2021/09/19 04:13:38;;;;;;;;;;;;;;;23.19;49.39;102556.03;2083934;28;815;-63
2021/09/19 04:14:38;;;;;;;;;;;;;;;23.28;48.14;102547.75;2083969;28;977;-63
2021/09/19 04:15:39;;;;;;;;;;;;;;;23.36;48.50;102550.34;2084561;28;835;-64
2021/09/19 04:16:39;;;;;;;;;;;;;;;23.36;48.47;102548.50;2084611;28;830;-63
2021/09/19 04:17:39;;;;;;;;;;;;;;;23.39;48.78;102551.16;2084054;28;818;-63
2021/09/19 04:18:40;;;;;;;;;;;;;;;23.45;48.27;102555.59;2084054;28;849;-63
2021/09/19 04:19:40;;;;;;;;;;;;;;;23.51;47.87;102552.78;2083921;28;1965;-63
2021/09/19 04:20:40;;;;;;;;;;;;;;;23.45;49.33;102551.97;2083944;28;800;-63
2021/09/19 04:21:40;;;;;;;;;;;;;;;23.54;48.05;102558.13;2083979;28;838;-63
2021/09/19 04:22:41;;;;;;;;;;;;;;;23.53;51.17;102550.94;2084142;28;691;-63
2021/09/19 04:23:41;;;;;;;;;;;;;;;23.56;50.75;102552.66;2083661;28;1210;-63
2021/09/19 04:24:41;;;;;;;;;;;;;;;23.61;48.82;102544.44;2084015;28;795;-64
2021/09/19 04:25:41;;;;;;;;;;;;;;;23.63;48.81;102538.09;2083967;28;890;-65
2021/09/19 04:26:41;;;;;;;;;;;;;;;23.67;48.59;102537.13;2084035;28;823;-64
2021/09/19 04:27:42;;;;;;;;;;;;;;;23.72;49.95;102536.13;2084007;28;965;-63
2021/09/19 04:28:42;;;;;;;;;;;;;;;23.68;49.88;102535.28;2083734;28;986;-64
2021/09/19 04:29:42;;;;;;;;;;;;;;;23.80;47.91;102537.75;2083958;28;700;-64
2021/09/19 04:30:43;;;;;;;;;;;;;;;23.83;47.09;102540.41;2083925;28;906;-63
2021/09/19 04:31:43;;;;;;;;;;;;;;;23.85;48.50;102540.34;2083995;28;906;-63
2021/09/19 04:32:43;;;;;;;;;;;;;;;23.84;49.74;102535.91;2083910;28;804;-63
2021/09/19 04:33:44;;;;;;;;;;;;;;;23.83;49.21;102543.09;2083736;28;1220;-64
2021/09/19 04:34:44;;;;;;;;;;;;;;;23.86;48.85;102533.13;2083903;28;890;-64
2021/09/19 04:35:44;;;;;;;;;;;;;;;23.92;48.69;102546.53;2083957;28;1029;-64
2021/09/19 04:36:44;;;;;;;;;;;;;;;23.91;48.06;102542.06;2083816;28;843;-63
2021/09/19 04:37:45;;;;;;;;;;;;;;;23.95;48.31;102547.34;2083862;28;1001;-64
2021/09/19 04:38:45;;;;;;;;;;;;;;;23.94;49.28;102550.13;2083805;28;918;-64
2021/09/19 04:39:45;;;;;;;;;;;;;;;23.94;48.82;102544.69;2083513;28;2027;-64
2021/09/19 04:40:46;;;;;;;;;;;;;;;23.96;48.22;102543.72;2083866;28;1205;-64
2021/09/19 04:41:46;;;;;;;;;;;;;;;24.00;49.33;102544.59;2084144;28;911;-64
2021/09/19 04:42:46;;;;;;;;;;;;;;;23.97;52.27;102544.63;2084930;28;969;-64
2021/09/19 04:43:46;;;;;;;;;;;;;;;24.04;49.87;102542.72;2083808;28;875;-64
2021/09/19 04:44:46;;;;;;;;;;;;;;;24.02;48.26;102542.75;2083623;28;1008;-64
2021/09/19 04:45:46;;;;;;;;;;;;;;;24.04;47.76;102546.31;2083851;28;1033;-64
2021/09/19 04:46:46;;;;;;;;;;;;;;;24.06;48.13;102540.88;2083853;28;842;-64
2021/09/19 04:47:47;;;;;;;;;;;;;;;24.05;49.04;102540.00;2083743;28;1097;-64
2021/09/19 04:48:47;;;;;;;;;;;;;;;23.98;51.26;102546.41;2083801;28;761;-63
2021/09/19 04:49:47;;;;;;;;;;;;;;;23.99;48.67;102540.13;2083473;28;791;-63
2021/09/19 04:50:47;;;;;;;;;;;;;;;24.00;48.33;102544.59;2083767;28;974;-64
2021/09/19 04:51:47;;;;;;;;;;;;;;;24.08;50.54;102544.44;2083758;28;708;-64
2021/09/19 04:52:47;;;;;;;;;;;;;;;24.11;48.04;102528.13;2083431;28;795;-63
2021/09/19 04:53:48;;;;;;;;;;;;;;;24.11;49.20;102533.53;2083645;28;890;-64
2021/09/19 04:54:48;;;;;;;;;;;;;;;24.05;48.21;102534.56;2083737;28;1397;-63
2021/09/19 04:55:48;;;;;;;;;;;;;;;24.04;47.66;102537.31;2083802;28;828;-64
2021/09/19 04:56:48;;;;;;;;;;;;;;;24.03;48.46;102541.84;2083719;28;859;-63
2021/09/19 04:57:48;;;;;;;;;;;;;;;24.08;48.72;102539.94;2083794;28;768;-63
2021/09/19 04:58:48;;;;;;;;;;;;;;;24.11;47.41;102542.56;2083227;28;1312;-63
2021/09/19 04:59:48;;;;;;;;;;;;;;;24.21;49.50;102532.41;2083553;28;1886;-63
2021/09/19 05:00:49;;;;;;;;;;;;;;;24.21;48.22;102528.78;2083409;28;1108;-64
2021/09/19 05:01:49;;;;;;;;;;;;;;;24.23;48.11;102532.38;2083626;28;863;-64
2021/09/19 05:02:50;;;;;;;;;;;;;;;24.21;47.60;102531.50;2083694;28;831;-64
2021/09/19 05:03:50;;;;;;;;;;;;;;;24.24;48.36;102534.16;2083565;28;780;-63
2021/09/19 05:04:50;;;;;;;;;;;;;;;24.18;48.22;102532.47;2084002;28;807;-64
2021/09/19 05:05:50;;;;;;;;;;;;;;;24.18;49.55;102534.28;2084100;28;847;-64
2021/09/19 05:06:50;;;;;;;;;;;;;;;24.21;48.75;102532.41;2083642;28;982;-63
2021/09/19 05:07:51;;;;;;;;;;;;;;;24.22;49.79;102534.19;2083663;28;1439;-63
2021/09/19 05:08:51;;;;;;;;;;;;;;;24.17;47.85;102533.41;2083599;28;874;-64
2021/09/19 05:09:51;;;;;;;;;;;;;;;24.18;48.62;102532.47;2083634;28;792;-64
2021/09/19 05:10:51;;;;;;;;;;;;;;;24.18;47.59;102534.28;2083583;28;986;-63
2021/09/19 05:11:51;;;;;;;;;;;;;;;24.22;50.50;102536.00;2083337;28;942;-63
2021/09/19 05:12:52;;;;;;;;;;;;;;;24.20;47.18;102536.03;2083648;28;1227;-63
2021/09/19 05:13:52;;;;;;;;;;;;;;;24.16;47.85;102536.13;2083574;28;848;-64
2021/09/19 05:14:55;;;;;;;;;;;;;;;24.23;46.15;102538.69;2083492;28;828;-63
2021/09/19 05:15:55;;;;;;;;;;;;;;;24.34;47.57;102535.72;2083603;28;799;-63
2021/09/19 05:16:55;;;;;;;;;;;;;;;24.31;49.50;102535.78;2083437;28;776;-63
2021/09/19 05:17:55;;;;;;;;;;;;;;;24.27;48.20;102537.69;2083517;28;966;-63